Decoded Metar for KDUJ (DU BOIS in PA, USA) (IATA:DUJ) | Meteo·Mobile Aviation Weather
aviador You're here:

KDUJ Decoded Metar

DU BOIS in PA, USA
Report Time2019-03-21 14:53:00
UTC Time2019-03-21 15:32:22
Flight Rules vfr VFR
Wind120° at 08 kt
W.Decomp.*RWY 07: 4.0 kt HW 6.9 kt RCW
W.Rank120° ranks 8
Current wind is above 120° avg. (7.1)
Visibility9999 m
Phenomena:N/A
Clouds:Scattered 110 Hf
Expected CloudBase > 3,600 ft AGL from Temp-Dew spread
CeilingNone
Temp06°C (ISA -5)
Dew Point-3°C (53% RH)
AAT0.8°C
QNH1013 hPa
Density Alt1,243 ft
Elevation1,818 ft
Report Wrong Elevation
Raw Report
KDUJ 211453Z AUTO 12008KT 10SM SCT110 06/M03 A2992 RMK AO2 SLP141
T00561028 55002=

Extra information for KDUJ:More info

Metar Taf Metar & Taf Last 4 Metars F.Rules Stats Wind Profile Meteogram Temp Stats Airport Information Weather charts Add Link Nearby VenuesMetar ALERT Operation Metar Decoded Social comments

AIRNAV info for KDUJ